Time;durP1;ratioP1;P1;durP2;ratioP2;P2;SDS_P1;SDS_P2;PMS_P1;PMS_P2;Temp;Humidity;BMP_temperature;BMP_pressure;BME280_temperature;BME280_humidity;BME280_pressure;Samples;Min_cycle;Max_cycle;Signal;HPM_P1;HPM_P2
2022/07/17 00:02:34;;;;;;;1.40;1.30;;;19.00;80.50;;;;;;4976424;28;20239;-86
2022/07/17 00:05:09;;;;;;;1.33;1.23;;;19.00;80.20;;;;;;4976559;28;20228;-86
2022/07/17 00:07:47;;;;;;;1.67;1.58;;;18.90;79.80;;;;;;4976589;28;20209;-85
2022/07/17 00:10:31;;;;;;;1.58;1.48;;;18.90;79.50;;;;;;4976298;28;20216;-85
2022/07/17 00:13:08;;;;;;;1.60;1.48;;;18.90;79.70;;;;;;4976521;28;20384;-86
2022/07/17 00:15:46;;;;;;;1.27;1.20;;;18.90;80.40;;;;;;4975221;28;20288;-85
2022/07/17 00:18:23;;;;;;;1.88;1.30;;;18.90;80.20;;;;;;4976245;28;20212;-85
2022/07/17 00:21:02;;;;;;;1.50;1.33;;;18.90;79.50;;;;;;4976289;28;20206;-85
2022/07/17 00:23:37;;;;;;;1.85;1.60;;;18.90;80.00;;;;;;4976212;28;20224;-85
2022/07/17 00:26:25;;;;;;;1.63;1.52;;;18.90;80.10;;;;;;4976348;28;20248;-85
2022/07/17 00:29:07;;;;;;;1.42;1.33;;;18.90;80.40;;;;;;4976039;28;20208;-85
2022/07/17 00:31:40;;;;;;;1.67;1.50;;;18.90;79.30;;;;;;4976095;28;20219;-85
2022/07/17 00:34:19;;;;;;;1.20;1.15;;;18.90;79.20;;;;;;4975851;28;20232;-86
2022/07/17 00:36:53;;;;;;;1.48;1.38;;;18.80;80.10;;;;;;4976037;28;20208;-85
2022/07/17 00:39:27;;;;;;;3.70;1.20;;;18.80;80.00;;;;;;4976058;28;20204;-86
2022/07/17 00:42:14;;;;;;;1.30;1.20;;;18.80;79.70;;;;;;4975527;28;20208;-86
2022/07/17 00:44:47;;;;;;;2.75;1.65;;;18.80;80.00;;;;;;4976190;28;20232;-86
2022/07/17 00:47:30;;;;;;;1.80;1.17;;;18.80;80.00;;;;;;4975806;28;20210;-85
2022/07/17 00:50:04;;;;;;;1.13;1.13;;;18.80;80.10;;;;;;4975843;28;20208;-86
2022/07/17 00:55:25;;;;;;;1.33;1.23;;;18.70;80.80;;;;;;4974365;28;20310;-86
2022/07/17 00:58:22;;;;;;;1.15;1.02;;;18.70;81.30;;;;;;4975619;28;20229;-86
2022/07/17 01:01:00;;;;;;;1.38;1.27;;;18.70;81.20;;;;;;4975476;28;20212;-85
2022/07/17 01:03:35;;;;;;;1.10;1.10;;;18.70;81.30;;;;;;4975092;28;20307;-86
2022/07/17 01:09:09;;;;;;;1.42;1.27;;;18.60;80.80;;;;;;4975550;28;20271;-86
2022/07/17 01:14:37;;;;;;;1.30;1.20;;;18.60;81.40;;;;;;4973939;28;20240;-86
2022/07/17 01:17:11;;;;;;;1.42;1.20;;;18.60;81.00;;;;;;4975123;28;20291;-86
2022/07/17 01:19:44;;;;;;;1.58;1.33;;;18.60;81.60;;;;;;4975366;28;20212;-87
2022/07/17 01:22:25;;;;;;;1.10;1.10;;;18.50;82.10;;;;;;4974754;28;20212;-86
2022/07/17 01:25:09;;;;;;;1.30;1.20;;;18.50;82.10;;;;;;4974811;28;20235;-86
2022/07/17 01:27:55;;;;;;;1.30;1.20;;;18.40;81.80;;;;;;4975019;28;20204;-86
2022/07/17 01:30:37;;;;;;;1.38;1.30;;;18.40;82.10;;;;;;4974667;28;20214;-86
2022/07/17 01:33:11;;;;;;;1.20;1.15;;;18.30;82.50;;;;;;4975008;28;20204;-86
2022/07/17 01:35:48;;;;;;;1.20;1.10;;;18.20;82.20;;;;;;4974948;28;20291;-86
2022/07/17 01:38:26;;;;;;;1.17;1.10;;;18.20;83.00;;;;;;4974710;28;20219;-86
2022/07/17 01:40:57;;;;;;;1.50;1.35;;;18.10;83.00;;;;;;4974315;28;20266;-86
2022/07/17 01:43:35;;;;;;;1.60;1.50;;;18.10;83.00;;;;;;4974602;28;20216;-86
2022/07/17 01:46:11;;;;;;;1.02;1.02;;;18.00;83.00;;;;;;4975023;28;20214;-86
2022/07/17 01:48:44;;;;;;;2.25;1.55;;;18.00;83.60;;;;;;4974732;28;20211;-86
2022/07/17 01:51:21;;;;;;;1.48;1.38;;;17.90;83.70;;;;;;4974296;28;20204;-86
2022/07/17 01:54:07;;;;;;;1.05;1.05;;;17.90;83.90;;;;;;4974643;28;20247;-86
2022/07/17 01:56:42;;;;;;;1.42;1.33;;;17.90;84.00;;;;;;4974536;28;20212;-86
2022/07/17 01:59:18;;;;;;;1.55;1.45;;;17.80;84.30;;;;;;4974532;28;20207;-87
2022/07/17 02:01:54;;;;;;;1.23;1.20;;;17.80;84.40;;;;;;4974530;28;20212;-86
2022/07/17 02:04:28;;;;;;;1.05;1.05;;;17.70;85.10;;;;;;4974134;28;20309;-86
2022/07/17 02:07:04;;;;;;;1.67;1.58;;;17.70;84.80;;;;;;4974166;28;20212;-86
2022/07/17 02:09:42;;;;;;;1.05;1.05;;;17.70;85.20;;;;;;4974390;28;20259;-86
2022/07/17 02:12:16;;;;;;;1.30;1.30;;;17.70;85.20;;;;;;4974390;28;20211;-86
2022/07/17 02:14:55;;;;;;;5.00;1.60;;;17.70;85.30;;;;;;4974065;28;20234;-86
2022/07/17 02:17:29;;;;;;;1.10;1.10;;;17.60;85.50;;;;;;4973947;28;20308;-86
2022/07/17 02:20:01;;;;;;;1.20;1.20;;;17.60;86.20;;;;;;4974394;28;20201;-86
2022/07/17 02:22:46;;;;;;;1.67;1.52;;;17.50;86.50;;;;;;4973800;28;20204;-86
2022/07/17 02:25:24;;;;;;;1.45;1.23;;;17.60;86.20;;;;;;4974219;28;20228;-86
2022/07/17 02:27:59;;;;;;;1.30;1.20;;;17.50;87.30;;;;;;4973751;28;20267;-86
2022/07/17 02:30:30;;;;;;;1.20;1.10;;;17.50;87.60;;;;;;4973548;28;20211;-86
2022/07/17 02:33:03;;;;;;;1.30;1.20;;;17.50;86.70;;;;;;4973865;28;20200;-86
2022/07/17 02:35:39;;;;;;;1.52;1.42;;;;;;;;;;4973891;28;20232;-86
2022/07/17 02:38:14;;;;;;;1.85;1.08;;;17.50;87.10;;;;;;4973488;28;20204;-86
2022/07/17 02:40:56;;;;;;;1.77;1.33;;;17.40;87.00;;;;;;4974082;28;20230;-86
2022/07/17 02:43:33;;;;;;;1.10;1.02;;;17.40;87.80;;;;;;4973982;28;20227;-86
2022/07/17 02:49:00;;;;;;;1.58;1.25;;;17.30;88.20;;;;;;4973420;28;20234;-86
2022/07/17 02:51:37;;;;;;;1.60;1.50;;;17.30;88.40;;;;;;4974130;28;20215;-86
2022/07/17 02:54:12;;;;;;;1.85;1.20;;;17.30;89.90;;;;;;4973785;28;20227;-86
2022/07/17 02:56:57;;;;;;;1.63;1.52;;;17.30;88.70;;;;;;4973818;28;20259;-86
2022/07/17 02:59:27;;;;;;;1.42;1.30;;;17.30;89.90;;;;;;4973885;28;20291;-86
2022/07/17 03:02:03;;;;;;;1.45;1.35;;;17.30;89.30;;;;;;4973604;28;20204;-86
2022/07/17 03:04:35;;;;;;;1.70;1.60;;;17.20;89.30;;;;;;4973603;28;20232;-86
2022/07/17 03:07:11;;;;;;;1.65;1.35;;;17.20;89.60;;;;;;4974001;28;20210;-86
2022/07/17 03:09:46;;;;;;;1.17;1.17;;;17.30;90.20;;;;;;4973472;28;20208;-86
2022/07/17 03:12:31;;;;;;;1.55;1.40;;;17.20;90.20;;;;;;4973372;28;20216;-87
2022/07/17 03:15:04;;;;;;;1.88;1.33;;;17.20;90.30;;;;;;4973747;28;20248;-86
2022/07/17 03:17:38;;;;;;;1.10;1.10;;;17.20;90.30;;;;;;4973797;28;20231;-86
2022/07/17 03:20:14;;;;;;;1.52;1.42;;;17.20;90.30;;;;;;4973340;28;20227;-86
2022/07/17 03:22:50;;;;;;;1.70;1.60;;;17.20;90.80;;;;;;4973648;28;20275;-86
2022/07/17 03:25:30;;;;;;;1.02;1.02;;;17.20;91.00;;;;;;4973151;28;20232;-86
2022/07/17 03:28:09;;;;;;;1.00;1.00;;;17.10;91.10;;;;;;4973030;28;20271;-86
2022/07/17 03:30:55;;;;;;;1.52;1.42;;;17.10;91.30;;;;;;4973167;28;20216;-86
2022/07/17 03:33:32;;;;;;;5.10;1.38;;;17.10;91.50;;;;;;4973343;28;20205;-86
2022/07/17 03:36:14;;;;;;;1.33;1.23;;;17.10;91.80;;;;;;4973471;28;20215;-86
2022/07/17 03:39:08;;;;;;;1.25;1.25;;;17.00;92.00;;;;;;4973484;28;20208;-86
2022/07/17 03:41:46;;;;;;;1.27;1.17;;;17.00;91.90;;;;;;4973098;28;20216;-86
2022/07/17 03:44:31;;;;;;;1.40;1.30;;;17.00;92.10;;;;;;4972944;28;20252;-86
2022/07/17 03:47:07;;;;;;;1.83;1.30;;;17.00;92.50;;;;;;4973991;28;20201;-86
2022/07/17 03:49:56;;;;;;;1.70;1.25;;;16.90;92.80;;;;;;4974043;28;20214;-85
2022/07/17 03:52:40;;;;;;;1.23;1.13;;;16.90;92.70;;;;;;4977054;28;20231;-85
2022/07/17 03:55:20;;;;;;;1.30;1.20;;;16.90;92.50;;;;;;4976557;28;20236;-86
2022/07/17 03:57:54;;;;;;;1.65;1.40;;;16.90;93.00;;;;;;4977021;28;20286;-86
2022/07/17 04:00:39;;;;;;;1.48;1.30;;;17.00;92.80;;;;;;4976390;28;20205;-86
2022/07/17 04:03:25;;;;;;;1.02;1.02;;;17.00;93.10;;;;;;4976510;28;20271;-85
2022/07/17 04:06:05;;;;;;;1.30;1.20;;;17.00;93.30;;;;;;4976612;28;20207;-86
2022/07/17 04:11:34;;;;;;;1.50;1.40;;;17.00;93.40;;;;;;4971950;28;20212;-85
2022/07/17 04:14:11;;;;;;;7.72;1.40;;;17.10;93.60;;;;;;4976575;28;20290;-85
2022/07/17 04:16:44;;;;;;;1.13;1.13;;;17.10;93.90;;;;;;4976183;28;20211;-85
2022/07/17 04:19:12;;;;;;;1.80;1.70;;;17.10;94.20;;;;;;4976468;28;20208;-86
2022/07/17 04:21:41;;;;;;;1.35;1.25;;;17.10;93.70;;;;;;4975567;28;20228;-85
2022/07/17 04:24:18;;;;;;;1.20;1.20;;;17.20;94.60;;;;;;4975804;28;20228;-85
2022/07/17 04:26:58;;;;;;;1.50;1.40;;;17.20;93.80;;;;;;4976649;28;20294;-86
2022/07/17 04:29:30;;;;;;;1.52;1.35;;;17.30;93.70;;;;;;4976098;28;20224;-85
2022/07/17 04:32:04;;;;;;;2.75;1.70;;;17.30;94.00;;;;;;4975939;28;20208;-85
2022/07/17 04:34:46;;;;;;;2.25;1.63;;;17.30;93.90;;;;;;4975779;28;20227;-85
2022/07/17 04:37:24;;;;;;;1.58;1.48;;;17.40;94.30;;;;;;4975972;28;20204;-85
2022/07/17 04:40:06;;;;;;;0.93;0.90;;;17.40;94.70;;;;;;4976018;28;20299;-85
2022/07/17 04:42:47;;;;;;;2.42;1.50;;;17.40;95.30;;;;;;4975708;28;20216;-85
2022/07/17 04:45:24;;;;;;;1.02;1.02;;;17.40;95.00;;;;;;4975558;28;20315;-85
2022/07/17 04:48:05;;;;;;;2.17;1.98;;;17.40;94.90;;;;;;4975901;28;20294;-85
2022/07/17 04:50:38;;;;;;;1.30;1.20;;;17.50;95.30;;;;;;4975213;28;20218;-85
2022/07/17 04:53:26;;;;;;;1.60;1.50;;;17.50;95.10;;;;;;4976060;28;20204;-85
2022/07/17 04:56:00;;;;;;;1.20;1.20;;;17.50;95.30;;;;;;4975655;28;20200;-85
2022/07/17 04:58:34;;;;;;;1.77;1.40;;;17.60;94.80;;;;;;4975695;28;20268;-85
2022/07/17 05:01:05;;;;;;;1.85;1.58;;;17.60;95.00;;;;;;4975015;28;20239;-85
2022/07/17 05:03:41;;;;;;;1.58;1.48;;;17.70;95.00;;;;;;4975890;28;20240;-85
2022/07/17 05:06:14;;;;;;;1.58;1.48;;;17.70;94.90;;;;;;4975851;28;20228;-85
2022/07/17 05:08:46;;;;;;;1.10;1.10;;;17.70;95.00;;;;;;4975646;28;20271;-86
2022/07/17 05:11:18;;;;;;;1.48;1.38;;;17.80;94.80;;;;;;4975093;28;20213;-86
2022/07/17 05:13:48;;;;;;;1.55;1.45;;;17.80;94.90;;;;;;4975179;28;20236;-86
2022/07/17 05:16:17;;;;;;;2.60;1.48;;;17.80;95.00;;;;;;4975334;28;20221;-86
2022/07/17 05:18:49;;;;;;;1.02;1.00;;;17.90;95.00;;;;;;4975364;28;20204;-86
2022/07/17 05:21:20;;;;;;;2.80;1.55;;;18.00;95.10;;;;;;4975186;28;20299;-86
2022/07/17 05:23:49;;;;;;;3.20;1.67;;;18.00;94.80;;;;;;4974950;28;20251;-86
2022/07/17 05:26:24;;;;;;;1.58;1.48;;;18.10;94.40;;;;;;4974554;28;20271;-86
2022/07/17 05:28:54;;;;;;;2.53;1.40;;;18.20;93.50;;;;;;4975164;28;20207;-86
2022/07/17 05:31:28;;;;;;;1.15;1.05;;;18.20;93.20;;;;;;4974875;28;20204;-86
2022/07/17 05:34:02;;;;;;;1.88;1.27;;;18.30;93.20;;;;;;4974827;28;20230;-85
2022/07/17 05:36:40;;;;;;;1.02;1.02;;;18.40;93.10;;;;;;4974765;28;20208;-85
2022/07/17 05:39:25;;;;;;;1.42;1.33;;;18.40;92.30;;;;;;4974854;28;20212;-85
2022/07/17 05:42:00;;;;;;;2.58;1.15;;;18.50;92.50;;;;;;4974266;28;20204;-86
2022/07/17 05:44:37;;;;;;;1.20;1.10;;;18.60;93.50;;;;;;4974443;28;20232;-85
2022/07/17 05:47:06;;;;;;;4.03;1.55;;;18.70;92.30;;;;;;4974964;28;20212;-86
2022/07/17 05:49:40;;;;;;;1.30;1.20;;;18.70;92.50;;;;;;4974425;28;20205;-86
2022/07/17 05:52:19;;;;;;;1.15;1.08;;;18.80;91.80;;;;;;4974466;28;20208;-86
2022/07/17 05:54:54;;;;;;;1.65;1.55;;;18.90;91.50;;;;;;4974477;28;20244;-86
2022/07/17 05:57:24;;;;;;;0.90;0.90;;;18.90;91.80;;;;;;4974033;28;20280;-86
2022/07/17 06:00:05;;;;;;;1.00;1.00;;;19.00;92.30;;;;;;4974595;28;20208;-86
2022/07/17 06:02:37;;;;;;;1.38;1.15;;;19.10;91.00;;;;;;4974287;28;20260;-86
2022/07/17 06:05:12;;;;;;;2.00;1.70;;;19.10;90.20;;;;;;4974089;28;20364;-86
2022/07/17 06:07:47;;;;;;;1.00;1.00;;;19.10;90.10;;;;;;4974323;28;20295;-86
2022/07/17 06:10:16;;;;;;;3.15;1.48;;;19.10;90.40;;;;;;4974046;28;20227;-86
2022/07/17 06:12:49;;;;;;;2.17;1.05;;;19.20;90.30;;;;;;4973905;28;20263;-85
2022/07/17 06:15:29;;;;;;;1.17;1.08;;;19.30;89.30;;;;;;4974295;28;20220;-86
2022/07/17 06:18:14;;;;;;;1.63;1.23;;;19.30;86.80;;;;;;4973887;28;20207;-86
2022/07/17 06:20:46;;;;;;;1.35;1.25;;;19.40;84.40;;;;;;4973949;28;20216;-86
2022/07/17 06:23:19;;;;;;;1.83;1.10;;;19.50;84.60;;;;;;4974174;28;20211;-86
2022/07/17 06:25:54;;;;;;;1.20;1.10;;;19.50;81.80;;;;;;4974243;28;20228;-86
2022/07/17 06:28:34;;;;;;;3.92;1.40;;;19.60;81.30;;;;;;4974089;28;20211;-86
2022/07/17 06:31:06;;;;;;;1.45;1.30;;;19.70;81.50;;;;;;4973849;28;20296;-86
2022/07/17 06:33:38;;;;;;;1.23;1.17;;;19.80;81.80;;;;;;4973905;28;20259;-86
2022/07/17 06:36:11;;;;;;;2.00;1.20;;;19.90;82.00;;;;;;4974198;28;20231;-86
2022/07/17 06:38:43;;;;;;;3.95;1.02;;;20.00;83.40;;;;;;4973831;28;20208;-86
2022/07/17 06:41:15;;;;;;;1.20;1.10;;;20.10;82.90;;;;;;4973932;28;20327;-86
2022/07/17 06:43:58;;;;;;;1.10;1.00;;;20.20;81.60;;;;;;4973758;28;20224;-86
2022/07/17 06:46:32;;;;;;;1.00;1.00;;;20.30;80.60;;;;;;4973716;28;20243;-86
2022/07/17 06:49:01;;;;;;;1.05;1.00;;;20.30;80.30;;;;;;4973703;28;20215;-85
2022/07/17 06:51:36;;;;;;;1.40;1.30;;;20.30;80.20;;;;;;4973886;28;20267;-86
2022/07/17 06:54:05;;;;;;;1.50;1.40;;;20.40;77.70;;;;;;4974129;28;20259;-86
2022/07/17 06:56:33;;;;;;;1.15;1.10;;;20.60;77.00;;;;;;4974025;28;20291;-86
2022/07/17 06:59:14;;;;;;;1.52;1.25;;;20.70;75.80;;;;;;4973948;28;20295;-86
2022/07/17 07:01:46;;;;;;;1.30;1.20;;;20.90;75.10;;;;;;4973696;28;20231;-86
2022/07/17 07:04:18;;;;;;;1.10;1.00;;;21.00;73.40;;;;;;4973953;28;20231;-86
2022/07/17 07:06:56;;;;;;;1.48;1.30;;;21.00;73.10;;;;;;4973690;28;20240;-85
2022/07/17 07:09:36;;;;;;;1.15;1.00;;;21.10;74.50;;;;;;4973996;28;20215;-86
2022/07/17 07:12:22;;;;;;;4.63;1.30;;;21.30;72.00;;;;;;4973167;28;20285;-89
2022/07/17 07:14:56;;;;;;;1.35;1.25;;;21.60;70.20;;;;;;4973775;28;20224;-89
2022/07/17 07:17:39;;;;;;;1.02;1.02;;;21.90;70.70;;;;;;4973595;28;20223;-88
2022/07/17 07:20:16;;;;;;;2.53;1.30;;;22.30;68.50;;;;;;4973261;28;20216;-89
2022/07/17 07:22:54;;;;;;;1.42;1.30;;;22.50;69.40;;;;;;4973514;28;20224;-89
2022/07/17 07:25:27;;;;;;;0.95;0.90;;;22.60;70.00;;;;;;4976726;28;20231;-85
2022/07/17 07:27:56;;;;;;;3.33;1.45;;;23.10;68.80;;;;;;4977184;28;20205;-86
2022/07/17 07:30:25;;;;;;;2.00;1.17;;;23.90;67.00;;;;;;4977219;28;20217;-86
2022/07/17 07:32:53;;;;;;;1.65;1.42;;;24.80;66.00;;;;;;4976674;28;20319;-85
2022/07/17 07:35:25;;;;;;;8.68;1.70;;;26.10;64.10;;;;;;4977203;28;20228;-86
2022/07/17 07:37:55;;;;;;;1.88;1.23;;;27.30;61.60;;;;;;4976869;28;20209;-85
2022/07/17 07:40:23;;;;;;;3.42;1.60;;;28.40;59.40;;;;;;4976661;28;20212;-85
2022/07/17 07:42:51;;;;;;;1.80;1.10;;;29.00;58.10;;;;;;4976901;28;20263;-86
2022/07/17 07:45:20;;;;;;;1.27;1.17;;;29.70;56.10;;;;;;4977075;28;20307;-85
2022/07/17 07:47:52;;;;;;;1.08;1.08;;;30.70;54.10;;;;;;4976591;28;20219;-86
2022/07/17 07:50:26;;;;;;;2.58;1.33;;;31.30;51.80;;;;;;4976840;28;20204;-86
2022/07/17 07:52:57;;;;;;;2.20;1.05;;;32.40;51.30;;;;;;4976739;28;20218;-86
2022/07/17 07:55:29;;;;;;;1.20;1.10;;;33.50;49.10;;;;;;4976383;28;20223;-86
2022/07/17 07:58:04;;;;;;;1.30;1.20;;;33.90;47.80;;;;;;4976768;28;20208;-86
2022/07/17 08:00:35;;;;;;;1.10;1.10;;;35.00;46.00;;;;;;4976448;28;20204;-86
2022/07/17 08:03:08;;;;;;;1.52;1.30;;;36.10;44.80;;;;;;4976814;28;20214;-86
2022/07/17 08:05:45;;;;;;;1.67;1.27;;;36.50;44.20;;;;;;4976415;28;20316;-86
2022/07/17 08:08:21;;;;;;;1.20;1.15;;;37.30;41.00;;;;;;4976735;28;20211;-86
2022/07/17 08:10:49;;;;;;;2.75;1.40;;;38.10;40.60;;;;;;4976265;28;20295;-86
2022/07/17 08:13:21;;;;;;;1.13;1.08;;;38.10;40.30;;;;;;4976389;28;20207;-86
2022/07/17 08:15:56;;;;;;;1.48;1.23;;;38.70;39.90;;;;;;4976521;28;20214;-86
2022/07/17 08:18:29;;;;;;;2.35;1.15;;;37.60;38.30;;;;;;4976698;28;20207;-86
2022/07/17 08:20:59;;;;;;;1.80;1.13;;;36.70;40.60;;;;;;4976161;28;20212;-86
2022/07/17 08:23:36;;;;;;;0.90;0.90;;;37.40;38.70;;;;;;4975893;28;20203;-86
2022/07/17 08:26:09;;;;;;;1.73;1.40;;;38.60;38.20;;;;;;4976176;28;20209;-86
2022/07/17 08:28:46;;;;;;;4.18;1.30;;;38.90;37.90;;;;;;4975863;28;20208;-86
2022/07/17 08:31:22;;;;;;;1.25;1.15;;;38.50;38.10;;;;;;4976519;28;20230;-86
2022/07/17 08:33:53;;;;;;;1.48;1.38;;;38.10;37.80;;;;;;4975464;28;20223;-86
2022/07/17 08:36:25;;;;;;;1.30;1.20;;;38.30;38.70;;;;;;4974821;28;20203;-86
2022/07/17 08:38:58;;;;;;;1.50;1.40;;;39.10;37.00;;;;;;4975893;28;20281;-87
2022/07/17 08:41:36;;;;;;;1.00;1.00;;;39.30;36.90;;;;;;4975759;28;20226;-86
2022/07/17 08:44:08;;;;;;;1.55;1.27;;;39.20;36.80;;;;;;4975790;28;20235;-86
2022/07/17 08:46:43;;;;;;;2.78;1.38;;;39.40;36.10;;;;;;4975698;28;20224;-86
2022/07/17 08:49:23;;;;;;;1.88;1.23;;;40.10;35.30;;;;;;4975508;28;20208;-86
2022/07/17 08:51:55;;;;;;;2.38;1.25;;;40.00;34.70;;;;;;4975482;28;20219;-86
2022/07/17 08:54:30;;;;;;;1.17;1.08;;;40.70;35.30;;;;;;4975331;28;20224;-86
2022/07/17 08:57:12;;;;;;;0.80;0.80;;;40.60;35.30;;;;;;4975599;28;20227;-86
2022/07/17 08:59:44;;;;;;;2.75;1.38;;;40.50;35.40;;;;;;4975951;28;20208;-84
2022/07/17 09:02:19;;;;;;;1.40;1.30;;;39.60;34.80;;;;;;4975684;28;20213;-84
2022/07/17 09:05:02;;;;;;;1.30;1.20;;;39.40;35.40;;;;;;4975575;28;20251;-85
2022/07/17 09:07:32;;;;;;;1.48;1.38;;;39.90;35.10;;;;;;4975320;28;20219;-87
2022/07/17 09:10:16;;;;;;;3.67;1.30;;;39.60;33.30;;;;;;4975206;28;20208;-87
2022/07/17 09:12:58;;;;;;;1.48;1.38;;;38.50;34.90;;;;;;4975615;28;20297;-87
2022/07/17 09:15:46;;;;;;;2.40;1.00;;;38.30;35.70;;;;;;4975535;28;20230;-87
2022/07/17 09:18:21;;;;;;;1.33;1.23;;;38.00;34.80;;;;;;4975198;28;20200;-87
2022/07/17 09:20:53;;;;;;;0.93;0.93;;;36.70;35.40;;;;;;4974937;28;20215;-87
2022/07/17 09:23:28;;;;;;;1.08;1.08;;;37.20;37.00;;;;;;4974650;28;20203;-87
2022/07/17 09:26:06;;;;;;;1.40;1.30;;;36.50;36.40;;;;;;4975241;28;20231;-87
2022/07/17 09:28:46;;;;;;;1.30;1.10;;;37.00;35.90;;;;;;4974690;28;20246;-87
2022/07/17 09:31:25;;;;;;;1.27;1.23;;;36.80;35.60;;;;;;4974967;28;20211;-87
2022/07/17 09:33:58;;;;;;;1.55;1.40;;;37.20;35.70;;;;;;4974594;28;20223;-87
2022/07/17 09:36:35;;;;;;;1.52;1.23;;;36.80;36.00;;;;;;4974844;28;20196;-87
2022/07/17 09:39:11;;;;;;;1.27;1.02;;;36.00;37.10;;;;;;4974902;28;20269;-85
2022/07/17 09:41:59;;;;;;;1.23;1.20;;;36.40;36.90;;;;;;4974838;28;20207;-85
2022/07/17 09:44:39;;;;;;;5.68;1.48;;;37.20;36.60;;;;;;4974815;28;20234;-85
2022/07/17 09:47:15;;;;;;;1.55;1.27;;;37.20;35.40;;;;;;4974043;28;20231;-85
2022/07/17 09:50:03;;;;;;;8.82;1.58;;;37.60;35.10;;;;;;4974722;28;20207;-85
2022/07/17 09:52:40;;;;;;;1.35;1.25;;;37.10;35.30;;;;;;4974320;28;20203;-85
2022/07/17 09:55:40;;;;;;;1.52;1.02;;;36.60;35.30;;;;;;4974403;28;20233;-85
2022/07/17 10:01:40;;;;;;;1.30;1.20;;;37.30;36.70;;;;;;4974355;28;20212;-85
2022/07/17 10:04:21;;;;;;;1.30;1.20;;;37.70;35.40;;;;;;4974419;28;20313;-85
2022/07/17 10:07:09;;;;;;;1.35;1.25;;;37.90;35.60;;;;;;4974263;28;20211;-85
2022/07/17 10:10:30;;;;;;;2.28;1.17;;;38.20;36.00;;;;;;4974124;28;20226;-85
2022/07/17 10:13:15;;;;;;;1.60;1.50;;;38.80;34.00;;;;;;4973575;28;20222;-85
2022/07/17 10:16:24;;;;;;;1.20;1.10;;;38.50;33.10;;;;;;4974203;28;20211;-85
2022/07/17 10:19:34;;;;;;;1.98;1.50;;;37.10;34.60;;;;;;4961911;28;20214;-86
2022/07/17 10:22:06;;;;;;;1.48;1.38;;;36.50;34.70;;;;;;4973903;28;20278;-85
2022/07/17 10:24:49;;;;;;;2.30;2.10;;;36.00;35.80;;;;;;4974548;28;20246;-85
2022/07/17 10:27:25;;;;;;;1.23;1.20;;;36.20;35.10;;;;;;4974180;28;20220;-86
2022/07/17 10:30:11;;;;;;;1.25;1.15;;;36.30;35.40;;;;;;4974073;28;20207;-85
2022/07/17 10:32:56;;;;;;;2.30;1.30;;;36.30;36.60;;;;;;4973781;28;20200;-85
2022/07/17 10:35:49;;;;;;;1.40;1.30;;;36.50;36.20;;;;;;4974314;28;20278;-85
2022/07/17 10:41:26;;;;;;;1.60;1.50;;;36.60;35.60;;;;;;4973736;28;20247;-85
2022/07/17 10:44:08;;;;;;;1.25;1.25;;;36.80;35.80;;;;;;4973971;28;20226;-86
2022/07/17 10:46:47;;;;;;;1.38;1.27;;;36.30;34.80;;;;;;4973864;28;20216;-85
2022/07/17 10:49:31;;;;;;;2.20;1.67;;;34.80;35.10;;;;;;4973689;28;20274;-85
2022/07/17 10:52:30;;;;;;;1.48;1.38;;;34.30;36.70;;;;;;4973830;28;20300;-85
2022/07/17 10:55:05;;;;;;;1.30;1.20;;;33.60;36.50;;;;;;4973779;28;20228;-85
2022/07/17 10:57:46;;;;;;;1.33;1.30;;;32.50;37.80;;;;;;4973869;28;20203;-85
2022/07/17 11:00:27;;;;;;;1.60;1.50;;;33.20;39.60;;;;;;4977273;28;20293;-85
2022/07/17 11:03:17;;;;;;;1.85;1.40;;;33.60;38.40;;;;;;4975722;28;20267;-85
2022/07/17 11:06:18;;;;;;;1.55;1.45;;;34.20;38.70;;;;;;4977491;28;20222;-86
2022/07/17 11:09:05;;;;;;;1.65;1.25;;;34.30;37.20;;;;;;4974265;28;20294;-85
2022/07/17 11:11:50;;;;;;;1.63;1.52;;;34.70;37.80;;;;;;4977429;28;20267;-85
2022/07/17 11:14:31;;;;;;;1.45;1.35;;;34.90;36.90;;;;;;4977749;28;20267;-85
2022/07/17 11:17:08;;;;;;;1.58;1.35;;;35.00;35.70;;;;;;4977716;28;20273;-85
2022/07/17 11:19:55;;;;;;;1.63;1.50;;;35.10;35.80;;;;;;4977372;28;20224;-86
2022/07/17 11:22:37;;;;;;;1.05;1.05;;;34.60;36.20;;;;;;4977435;28;20200;-86
2022/07/17 11:25:23;;;;;;;1.40;1.30;;;35.00;35.50;;;;;;4977281;28;20240;-86
2022/07/17 11:28:02;;;;;;;1.40;1.30;;;35.50;36.10;;;;;;4977202;28;20317;-86
2022/07/17 11:30:41;;;;;;;2.67;1.48;;;35.60;34.30;;;;;;4976880;28;20214;-86
2022/07/17 11:33:29;;;;;;;1.70;1.40;;;35.50;35.50;;;;;;4974179;28;20247;-86
2022/07/17 11:36:08;;;;;;;1.48;1.38;;;35.30;34.70;;;;;;4976815;28;20199;-86
2022/07/17 11:39:21;;;;;;;1.83;1.20;;;35.30;34.30;;;;;;4977493;28;20243;-86
2022/07/17 11:42:00;;;;;;;2.03;1.52;;;35.30;35.60;;;;;;4976788;28;20207;-86
2022/07/17 11:44:47;;;;;;;1.20;1.10;;;34.60;34.10;;;;;;4976700;28;20234;-86
2022/07/17 11:47:35;;;;;;;4.03;1.10;;;34.80;33.50;;;;;;4976850;28;20287;-86
2022/07/17 11:53:08;;;;;;;1.88;1.40;;;35.30;33.90;;;;;;4975065;28;20211;-86
2022/07/17 11:55:58;;;;;;;1.00;1.00;;;34.80;32.10;;;;;;4976756;28;20238;-86
2022/07/17 11:58:42;;;;;;;1.52;1.27;;;35.40;32.90;;;;;;4976608;28;20214;-85
2022/07/17 12:01:31;;;;;;;1.02;1.02;;;35.20;34.20;;;;;;4976613;28;20220;-85
2022/07/17 12:04:22;;;;;;;11.35;1.83;;;35.40;34.80;;;;;;4975838;28;20227;-86
2022/07/17 12:07:01;;;;;;;1.58;1.45;;;35.50;34.70;;;;;;4976300;28;20202;-89
2022/07/17 12:09:35;;;;;;;1.30;1.20;;;35.70;36.00;;;;;;4976072;28;20224;-89
2022/07/17 12:12:24;;;;;;;1.00;1.00;;;35.80;34.70;;;;;;4975096;28;20212;-89
2022/07/17 12:14:53;;;;;;;4.43;1.20;;;35.50;34.70;;;;;;4976302;28;20224;-89
2022/07/17 12:17:27;;;;;;;1.25;1.20;;;34.50;34.80;;;;;;4976595;28;20209;-89
2022/07/17 12:20:10;;;;;;;1.73;1.60;;;33.40;35.60;;;;;;4976440;28;20196;-86
2022/07/17 12:22:50;;;;;;;1.10;1.00;;;33.50;35.90;;;;;;4976385;28;20235;-86
2022/07/17 12:25:29;;;;;;;1.33;1.27;;;33.90;36.00;;;;;;4975852;28;20224;-86
2022/07/17 12:28:12;;;;;;;1.38;1.27;;;34.40;36.50;;;;;;4975991;28;20204;-86
2022/07/17 12:30:46;;;;;;;0.90;0.90;;;34.60;34.40;;;;;;4975966;28;20217;-86
2022/07/17 12:33:22;;;;;;;1.13;1.10;;;34.40;34.20;;;;;;4975790;28;20211;-86
2022/07/17 12:36:08;;;;;;;1.38;1.27;;;34.40;34.20;;;;;;4976112;28;20298;-90
2022/07/17 12:38:48;;;;;;;7.53;1.02;;;34.20;33.80;;;;;;4976075;28;20208;-91
2022/07/17 12:44:33;;;;;;;1.08;1.08;;;33.60;35.30;;;;;;4973350;28;20239;-89
2022/07/17 12:47:33;;;;;;;1.27;1.17;;;33.30;34.60;;;;;;4976212;28;20231;-89
2022/07/17 12:50:07;;;;;;;1.48;1.25;;;32.70;35.30;;;;;;4975386;28;20232;-89
2022/07/17 12:52:53;;;;;;;1.42;1.33;;;31.50;35.80;;;;;;4975978;28;20215;-89
2022/07/17 12:55:43;;;;;;;1.50;1.40;;;31.30;36.50;;;;;;4975893;28;20228;-89
2022/07/17 12:58:30;;;;;;;2.03;1.65;;;30.90;37.00;;;;;;4975948;28;20225;-89
2022/07/17 13:01:43;;;;;;;;;;;;;;;;;;;;;
2022/07/17 13:12:14;;;;;;;1.60;1.50;;;31.10;36.80;;;;;;4903712;29;20241;-89
2022/07/17 13:15:33;;;;;;;1.13;1.13;;;31.30;38.10;;;;;;4910469;29;20240;-89
2022/07/17 13:22:02;;;;;;;1.10;1.08;;;32.00;38.50;;;;;;4913933;29;20210;-86
2022/07/17 13:24:48;;;;;;;1.15;1.15;;;31.90;36.80;;;;;;4914531;29;20280;-89
2022/07/17 13:27:47;;;;;;;3.50;1.47;;;32.00;37.10;;;;;;5016511;27;4081875;-89
2022/07/17 13:30:26;;;;;;;1.60;1.38;;;32.10;37.30;;;;;;5130552;28;20448;-86
2022/07/17 13:33:05;;;;;;;1.40;1.30;;;32.20;38.30;;;;;;5131112;28;20203;-86
2022/07/17 13:35:41;;;;;;;1.30;1.20;;;32.30;37.70;;;;;;5110980;28;20282;-86
2022/07/17 13:38:27;;;;;;;1.95;1.35;;;32.20;37.60;;;;;;5110334;28;20203;-87
2022/07/17 13:41:15;;;;;;;1.30;1.20;;;32.30;38.10;;;;;;5110110;28;20208;-86
2022/07/17 13:44:02;;;;;;;1.15;1.08;;;31.90;36.90;;;;;;5109910;28;20234;-86
2022/07/17 13:46:47;;;;;;;1.65;1.48;;;31.80;36.00;;;;;;5110178;28;20277;-86
2022/07/17 13:49:27;;;;;;;1.60;1.35;;;31.50;36.20;;;;;;5110378;28;20203;-86
2022/07/17 13:52:19;;;;;;;1.88;1.27;;;31.60;37.70;;;;;;5110283;28;20203;-86
2022/07/17 13:55:19;;;;;;;1.50;1.40;;;31.30;38.10;;;;;;5110072;28;20224;-86
2022/07/17 13:58:34;;;;;;;2.25;1.33;;;31.00;37.60;;;;;;5109557;28;20204;-86
2022/07/17 14:01:20;;;;;;;1.40;1.30;;;31.00;37.90;;;;;;5109615;28;20265;-86
2022/07/17 14:04:11;;;;;;;1.58;1.48;;;30.80;38.10;;;;;;5110038;28;20216;-86
2022/07/17 14:06:53;;;;;;;1.33;1.23;;;30.90;39.20;;;;;;5110005;28;20231;-86
2022/07/17 14:09:53;;;;;;;1.40;1.30;;;30.80;37.60;;;;;;5109888;28;20211;-86
2022/07/17 14:12:35;;;;;;;3.15;1.88;;;30.80;37.80;;;;;;5110061;28;20291;-86
2022/07/17 14:15:13;;;;;;;1.40;1.30;;;31.00;38.90;;;;;;5109890;28;20215;-86
2022/07/17 14:18:02;;;;;;;3.90;1.20;;;31.10;39.00;;;;;;5109989;28;20204;-86
2022/07/17 14:23:46;;;;;;;2.20;1.60;;;31.20;38.40;;;;;;5108028;28;20208;-86
2022/07/17 14:26:26;;;;;;;2.08;1.65;;;31.20;38.00;;;;;;5109186;28;20230;-87
2022/07/17 14:29:21;;;;;;;4.22;1.58;;;30.80;38.50;;;;;;5101518;28;20196;-86
2022/07/17 14:32:05;;;;;;;10.80;1.50;;;30.60;38.70;;;;;;5108915;28;20204;-86